»·PEaware :: N505GH CL46-KRIR

N505GH :: CL46-KRIR

FLIGHT INFORMATION

Flight Status: Arrived
Operator: Privately registered:
United States
More flights under this callsign
Pilot: Gabor H. (24209)
Aircraft: Unknown
(A5)
More flights by this aircraft type
Origin: CL46 Quail Lake Sky Park
Canada
Destination: KRIR Flabob
United States
More flights between these airports :: More routes between these airports
Route: PMD SBD
File this flight plan on PilotEdge
Remarks:
Altitude:
(Current/Filed)
7,500ft
Speed:
(Current/Filed)
140kts
Departed: 10-Jul-19 08:24 AM
Arrived: 10-Jul-19 09:12 AM
Distance/Time
Traveled:
80nm/0:48
Distance/Time
To Go:
Arrived

Flight Plot

Page will automatically refresh every two minutes.

Flight plan parsing failed; only flown route is shown


Map Options




Map Legend


Flown Route
Filed Route
Departure Airport
Arrival Airport
Navaid (VOR, NDB)
Fix

Horizontal Profiles

Position Reports

Time Latitude Longitude Heading Altitude Ground
Speed
10-Jul-19 08:16 34.767300 -118.736018 9 3337ft 0kts
10-Jul-19 08:17 34.767301 -118.736018 9 3337ft 0kts
10-Jul-19 08:18 34.767301 -118.736018 9 3337ft 0kts
10-Jul-19 08:19 34.767330 -118.736012 9 3337ft 0kts
10-Jul-19 08:20 34.767941 -118.735714 15 3337ft 9kts
10-Jul-19 08:21 34.766872 -118.724944 53 3333ft 19kts
10-Jul-19 08:22 34.767130 -118.727897 279 3337ft 31kts
10-Jul-19 08:23 34.771279 -118.742543 277 3355ft 52kts
10-Jul-19 08:24 34.766319 -118.720501 98 3989ft 93kts
10-Jul-19 08:25 34.759772 -118.692718 106 5103ft 78kts
10-Jul-19 08:26 34.753709 -118.669797 106 6238ft 66kts
10-Jul-19 08:27 34.748350 -118.649064 107 7144ft 64kts
10-Jul-19 08:28 34.742070 -118.622689 106 7539ft 109kts
10-Jul-19 08:29 34.732642 -118.583434 106 7485ft 127kts
10-Jul-19 08:30 34.722681 -118.541392 106 7467ft 130kts
10-Jul-19 08:31 34.713167 -118.501192 106 7443ft 120kts
10-Jul-19 08:32 34.704068 -118.462591 106 7431ft 117kts
10-Jul-19 08:33 34.694955 -118.423905 106 7422ft 122kts
10-Jul-19 08:34 34.685477 -118.383750 106 7412ft 125kts
10-Jul-19 08:35 34.675477 -118.342553 109 7508ft 135kts
10-Jul-19 08:36 34.663059 -118.298923 109 7497ft 138kts
10-Jul-19 08:37 34.650498 -118.255159 110 7495ft 138kts
10-Jul-19 08:38 34.636025 -118.213013 113 7492ft 132kts
10-Jul-19 08:39 34.622060 -118.173260 113 7486ft 120kts
10-Jul-19 08:40 34.609076 -118.136199 113 7513ft 122kts
10-Jul-19 08:41 34.595413 -118.097277 113 7491ft 122kts
10-Jul-19 08:42 34.582218 -118.059649 113 7493ft 119kts
10-Jul-19 08:43 34.568599 -118.020864 113 7500ft 136kts
10-Jul-19 08:44 34.554769 -117.979697 112 7483ft 122kts
10-Jul-19 08:45 34.542111 -117.941616 112 7489ft 124kts
10-Jul-19 08:46 34.528685 -117.901334 112 7488ft 137kts
10-Jul-19 08:47 34.514098 -117.858796 115 7488ft 136kts
10-Jul-19 08:48 34.498266 -117.817720 115 7486ft 134kts
10-Jul-19 08:49 34.483087 -117.778362 115 7478ft 120kts
10-Jul-19 08:50 34.468484 -117.740437 115 7493ft 135kts
10-Jul-19 08:51 34.452555 -117.699202 115 7484ft 132kts
10-Jul-19 08:52 34.436814 -117.658457 115 7487ft 138kts
10-Jul-19 08:53 34.420648 -117.616638 115 7485ft 138kts
10-Jul-19 08:54 34.405235 -117.576656 115 7479ft 120kts
10-Jul-19 08:55 34.391149 -117.540754 118 7485ft 117kts
10-Jul-19 08:56 34.374546 -117.504226 123 7493ft 136kts
10-Jul-19 08:57 34.347461 -117.475771 151 7480ft 121kts
10-Jul-19 08:58 34.316425 -117.458814 158 7484ft 130kts
10-Jul-19 08:59 34.281826 -117.442742 158 7481ft 137kts
10-Jul-19 09:00 34.248851 -117.422598 148 7516ft 131kts
10-Jul-19 09:01 34.219210 -117.394622 138 7027ft 135kts
10-Jul-19 09:02 34.192264 -117.362137 135 6548ft 140kts
10-Jul-19 09:04 34.161406 -117.334202 157 6042ft 139kts
10-Jul-19 09:05 34.123644 -117.323917 168 5549ft 140kts
10-Jul-19 09:06 34.083333 -117.316914 173 4896ft 156kts
10-Jul-19 09:07 34.041936 -117.313351 176 4093ft 134kts
10-Jul-19 09:08 34.008174 -117.314706 227 3482ft 107kts
10-Jul-19 09:09 34.001624 -117.346170 256 3149ft 90kts
10-Jul-19 09:10 33.995705 -117.376222 256 2282ft 92kts
10-Jul-19 09:11 33.990568 -117.400835 256 937ft 66kts
10-Jul-19 09:12 33.989225 -117.409018 348 766ft 6kts
10-Jul-19 09:13 33.989907 -117.408136 341 766ft 0kts
10-Jul-19 09:14 33.989907 -117.408136 341 766ft 0kts

Navigation Log

Ident Type
Flight plan parsing failed, navigation log unavailable